ADDS METAR Data INFO
IDs: Format: Raw Decoded Include TAF

Data at: 0652 UTC 18 Feb 2018

KEAN 180635Z AUTO 20009G24KT 10SM CLR 10/M15 A2958 RMK AO2 T00951151
KEAN 180615Z AUTO 20011G27KT 10SM CLR 10/M15 A2959 RMK AO2 T00971148
KEAN 180555Z AUTO 20018G29KT 10SM CLR 11/M14 A2960 RMK AO2 T01051145 10111 20059
KEAN 180535Z AUTO 21020G28KT 10SM CLR 11/M14 A2960 RMK AO2 T01101137
KEAN 180515Z AUTO 21016G27KT 10SM CLR 10/M13 A2960 RMK AO2 T01021135
KEAN 180455Z AUTO 21014G29KT 10SM CLR 10/M13 A2962 RMK AO2 T00971135
KEAN 180435Z AUTO 19012G30KT 10SM CLR 09/M13 A2965 RMK AO2 T00871132
KEAN 180415Z AUTO 13014KT 10SM CLR 07/M13 A2966 RMK AO2 T00671130
KEAN 180355Z AUTO 13016G21KT 10SM CLR 07/M13 A2967 RMK AO2 T00701132
KEAN 180335Z AUTO 15014G20KT 10SM CLR 07/M13 A2969 RMK AO2 T00681135
KEAN 180315Z AUTO 14015G19KT 10SM CLR 06/M13 A2972 RMK AO2 T00591132
KEAN 180255Z AUTO 14008G15KT 10SM CLR 07/M14 A2975 RMK AO2 T00671142
KEAN 180235Z AUTO 19011G19KT 10SM CLR 09/M16 A2976 RMK AO2 T00871163
KEAN 180215Z AUTO 20008G23KT 030V260 10SM CLR 09/M17 A2976 RMK AO2 T00881167
KEAN 180155Z AUTO 19012KT 10SM CLR 08/M16 A2978 RMK AO2 T00831162
KEAN 180135Z AUTO 20017G28KT 10SM SCT100 09/M16 A2978 RMK AO2 T00891163
KEAN 180115Z AUTO 21016G30KT 10SM BKN110 09/M16 A2976 RMK AO2 T00921163
KEAN 180055Z AUTO 21017G26KT 10SM BKN110 09/M17 A2978 RMK AO2 T00911169
KEAN 180035Z AUTO 21027G37KT 10SM SCT110 10/M17 A2974 RMK AO2 T00971174
KEAN 180015Z AUTO 22026G33KT 10SM SCT100 10/M18 A2973 RMK AO2 T01001183
KEAN 172355Z AUTO 22015G33KT 10SM SCT100 10/M19 A2975 RMK AO2 T01011195 10104 20062
KEAN 172335Z AUTO 24016G35KT 10SM CLR 10/M18 A2978 RMK AO2 T01001184
KEAN 172315Z AUTO 23021G37KT 10SM CLR 10/M17 A2980 RMK AO2 T01031175
KEAN 172255Z AUTO 23027G42KT 10SM CLR 10/M17 A2980 RMK AO2 T01001168
KEAN 172235Z AUTO 22021G39KT 10SM CLR 09/M17 A2982 RMK AO2 T00911170
KEAN 172215Z AUTO 23025G37KT 10SM CLR 09/M16 A2983 RMK AO2 T00851163
KEAN 172155Z AUTO 23025G30KT 10SM CLR 08/M15 A2984 RMK AO2 T00811150
KEAN 172135Z AUTO 24017G34KT 10SM CLR 08/M14 A2985 RMK AO2 T00761136
KEAN 172115Z AUTO 24016G31KT 10SM CLR 08/M12 A2987 RMK AO2 T00801120
KEAN 172055Z AUTO 23017G31KT 10SM CLR 08/M11 A2989 RMK AO2 T00771109
KEAN 172035Z AUTO 23020G31KT 10SM CLR 09/M10 A2990 RMK AO2 T00921104
KEAN 172015Z AUTO 24024G32KT 10SM CLR 09/M11 A2991 RMK AO2 T00871107
KEAN 171955Z AUTO 23022G31KT 10SM CLR 09/M10 A2993 RMK AO2 T00861105
KEAN 171935Z AUTO 22026G36KT 10SM SCT065 08/M11 A2994 RMK AO2 T00801106
KEAN 171915Z AUTO 23020G29KT 10SM SCT065 08/M10 A2995 RMK AO2 T00791105
KEAN 171855Z AUTO 22020G27KT 10SM CLR 08/M10 A2998 RMK AO2 T00781105
KEAN 171835Z AUTO 22019G31KT 10SM CLR 07/M11 A2999 RMK AO2 T00711109
KEAN 171815Z AUTO 24024G31KT 10SM CLR 07/M11 A3000 RMK AO2 T00651109
KEAN 171755Z AUTO 24019G33KT 10SM CLR 06/M11 A3001 RMK AO2 T00611114 10062 21006
KEAN 171735Z AUTO 23019G27KT 10SM CLR 06/M11 A3002 RMK AO2 T00581111
KEAN 171715Z AUTO 24016G25KT 10SM CLR 06/M11 A3002 RMK AO2 T00561109
KEAN 171655Z AUTO 24018G31KT 10SM CLR 05/M11 A3002 RMK AO2 T00481111
KEAN 171635Z AUTO 24018G26KT 10SM CLR 05/M11 A3002 RMK AO2 T00451108
KEAN 171615Z AUTO 24016G28KT 10SM CLR 04/M11 A3003 RMK AO2 T00401108
KEAN 171555Z AUTO 26010G19KT 10SM CLR 03/M10 A3004 RMK AO2 T00331101
KEAN 171535Z AUTO 26011G17KT 10SM CLR 02/M10 A3003 RMK AO2 T00231102
KEAN 171515Z AUTO 26010G16KT 10SM CLR 01/M10 A3003 RMK AO2 T00141100
KEAN 171455Z AUTO 27009KT 10SM CLR 01/M11 A3002 RMK AO2 T00061106
KEAN 171435Z AUTO 25008KT 10SM CLR 00/M11 A3001 RMK AO2 T00001106
KEAN 171415Z AUTO 24010G14KT 10SM CLR 00/M11 A3000 RMK AO2 T10051106
KEAN 171355Z AUTO 24008KT 10SM CLR 00/M11 A2999 RMK AO2 T10051113
KEAN 171335Z AUTO 23010KT 10SM CLR 00/M11 A2997 RMK AO2 T10031111
KEAN 171315Z AUTO 23008G16KT 10SM CLR 00/M10 A2997 RMK AO2 T10051105
KEAN 171255Z AUTO 22014G22KT 10SM CLR 00/M10 A2996 RMK AO2 T10011105
KEAN 171235Z AUTO 23015G25KT 10SM CLR 00/M10 A2995 RMK AO2 T00001105
KEAN 171215Z AUTO 22016G26KT 10SM CLR 00/M10 A2993 RMK AO2 T00001105
KEAN 171155Z AUTO 23012G21KT 10SM CLR 00/M10 A2993 RMK AO2 T10021105 10006 21006
KEAN 171135Z AUTO 23012G16KT 10SM CLR M01/M10 A2992 RMK AO2 T10061105
KEAN 171115Z AUTO 23014G22KT 10SM SCT120 M01/M11 A2991 RMK AO2 T10061106
KEAN 171055Z AUTO 23015G20KT 10SM SCT120 M01/M10 A2990 RMK AO2 T10061105
KEAN 171035Z AUTO 24017G24KT 10SM CLR 00/M10 A2989 RMK AO2 T10041105
KEAN 171015Z AUTO 24016G25KT 10SM CLR 00/M10 A2988 RMK AO2 T10011105
KEAN 170955Z AUTO 24016G26KT 10SM CLR 00/M10 A2988 RMK AO2 T00001105
KEAN 170935Z AUTO 24018G30KT 10SM CLR 00/M10 A2987 RMK AO2 T00001105
KEAN 170915Z AUTO 24020G33KT 10SM CLR 00/M10 A2986 RMK AO2 T00001102
KEAN 170856Z AUTO 24019G31KT 10SM SCT110 00/M10 A2986 RMK AO2
KEAN 170810Z AUTO 24022G32KT 10SM CLR 00/M09 A2985 RMK AO2 T00001093
KEAN 170755Z AUTO 24021G33KT 10SM CLR 00/M09 A2984 RMK AO2 T00001091
KEAN 170735Z AUTO 24022G34KT 10SM CLR 00/M10 A2984 RMK AO2 T00021100
KEAN 170715Z AUTO 24023G34KT 10SM CLR 00/M10 A2983 RMK AO2 T00021100
KEAN 170655Z AUTO 25020G29KT 10SM CLR 00/M10 A2983 RMK AO2 T00021101 400771125
KEAN 170635Z AUTO 24028G40KT 10SM CLR 01/M10 A2982 RMK AO2 T00061103
KEAN 170615Z AUTO 24018G37KT 10SM CLR 01/M10 A2983 RMK AO2 T00051101
KEAN 170555Z AUTO 25019G32KT 10SM CLR 01/M10 A2983 RMK AO2 T00051101 10050 20005
KEAN 170535Z AUTO 24023G32KT 10SM SCT120 01/M10 A2982 RMK AO2 T00061099
KEAN 170515Z AUTO 25018G26KT 10SM BKN120 01/M09 A2984 RMK AO2 T00071094
KEAN 170455Z AUTO 24021G28KT 10SM BKN120 01/M09 A2984 RMK AO2 T00111095
KEAN 170435Z AUTO 26021G36KT 10SM SCT110 02/M09 A2982 RMK AO2 T00151095
KEAN 170415Z AUTO 23018G32KT 10SM CLR 02/M09 A2981 RMK AO2 T00201090
KEAN 170355Z AUTO 23020G30KT 10SM SCT120 02/M08 A2980 RMK AO2 T00181082
KEAN 170335Z AUTO 22025G35KT 10SM SCT110 02/M09 A2980 RMK AO2 T00211086
KEAN 170315Z AUTO 24023G43KT 10SM SCT120 03/M11 A2980 RMK AO2 T00291108
KEAN 170255Z AUTO 23023G31KT 10SM BKN120 04/M13 A2980 RMK AO2 T00361126
KEAN 170235Z AUTO 24023G31KT 10SM SCT100 BKN120 04/M14 A2982 RMK AO2 T00411136
KEAN 170215Z AUTO 24018G27KT 10SM BKN100 04/M14 A2982 RMK AO2 T00441143
KEAN 170155Z AUTO 25016G26KT 10SM BKN100 BKN120 05/M15 A2982 RMK AO2 T00451151
KEAN 170135Z AUTO 25015G33KT 10SM CLR 05/M16 A2981 RMK AO2 T00471159
KEAN 170115Z AUTO 23021G35KT 10SM CLR 05/M16 A2979 RMK AO2 T00451165
KEAN 170055Z AUTO 22026G49KT 10SM CLR 05/M18 A2977 RMK AO2 T00471180
KEAN 170035Z AUTO 23029G36KT 10SM CLR 05/M19 A2975 RMK AO2 T00451194
KEAN 170015Z AUTO 24016G26KT 10SM CLR 05/M20 A2980 RMK AO2 T00451200
KEAN 162355Z AUTO 27009G23KT 10SM SCT110 05/M20 A2982 RMK AO2 T00511196 10077 20032
KEAN 162335Z AUTO 23016G21KT 10SM OVC110 05/M19 A2982 RMK AO2 T00521192
KEAN 162315Z AUTO 23021G30KT 10SM SCT120 05/M20 A2981 RMK AO2 T00521197
KEAN 162255Z AUTO 23014G22KT 10SM CLR 06/M19 A2984 RMK AO2 T00571189
KEAN 162235Z AUTO 22017G23KT 10SM CLR 06/M18 A2985 RMK AO2 T00621180
KEAN 162215Z AUTO 24017G25KT 10SM CLR 07/M18 A2984 RMK AO2 T00731176
KEAN 162155Z AUTO 26013G17KT 10SM SCT100 07/M17 A2986 RMK AO2 T00701172
KEAN 162135Z AUTO 25014G22KT 10SM SCT110 05/M17 A2987 RMK AO2 T00541169
KEAN 162115Z AUTO 21010G22KT 10SM CLR 07/M17 A2988 RMK AO2 T00681172
KEAN 162055Z AUTO 20007KT 10SM CLR 08/M17 A2989 RMK AO2 T00771168
KEAN 162035Z AUTO 25006G14KT 10SM CLR 07/M17 A2990 RMK AO2 T00701173
KEAN 162015Z AUTO 22011G16KT 10SM CLR 07/M17 A2992 RMK AO2 T00671168
KEAN 161955Z AUTO 25011G20KT 10SM CLR 06/M15 A2994 RMK AO2 T00611151
KEAN 161935Z AUTO 21018G30KT 10SM CLR 06/M15 A2995 RMK AO2 T00571148
KEAN 161915Z AUTO 22022G31KT 10SM CLR 05/M15 A2996 RMK AO2 T00531151
KEAN 161855Z AUTO 23018G30KT 10SM CLR 05/M14 A2998 RMK AO2 T00541141